sensor_id;sensor_type;location;lat;lon;timestamp;P1;durP1;ratioP1;P2;durP2;ratioP2
67278;SDS011;54193;53.746;10.058;2023-07-13T00:00:15;12.90;;;5.05;;
67278;SDS011;54193;53.746;10.058;2023-07-13T00:03:02;12.40;;;5.00;;
67278;SDS011;54193;53.746;10.058;2023-07-13T00:05:56;10.75;;;5.00;;
67278;SDS011;54193;53.746;10.058;2023-07-13T00:08:43;10.82;;;4.60;;
67278;SDS011;54193;53.746;10.058;2023-07-13T00:11:29;10.70;;;4.93;;
67278;SDS011;54193;53.746;10.058;2023-07-13T00:14:15;11.73;;;5.03;;
67278;SDS011;54193;53.746;10.058;2023-07-13T00:17:01;10.60;;;4.72;;
67278;SDS011;54193;53.746;10.058;2023-07-13T00:19:46;10.82;;;4.60;;
67278;SDS011;54193;53.746;10.058;2023-07-13T00:22:32;13.40;;;4.57;;
67278;SDS011;54193;53.746;10.058;2023-07-13T00:25:18;12.20;;;4.80;;
67278;SDS011;54193;53.746;10.058;2023-07-13T00:28:04;9.82;;;4.55;;
67278;SDS011;54193;53.746;10.058;2023-07-13T00:30:49;9.90;;;5.20;;
67278;SDS011;54193;53.746;10.058;2023-07-13T00:33:35;11.23;;;5.30;;
67278;SDS011;54193;53.746;10.058;2023-07-13T00:36:20;14.63;;;5.20;;
67278;SDS011;54193;53.746;10.058;2023-07-13T00:39:06;9.63;;;5.18;;
67278;SDS011;54193;53.746;10.058;2023-07-13T00:41:52;9.85;;;4.80;;
67278;SDS011;54193;53.746;10.058;2023-07-13T00:44:37;8.63;;;4.80;;
67278;SDS011;54193;53.746;10.058;2023-07-13T00:47:25;10.88;;;5.10;;
67278;SDS011;54193;53.746;10.058;2023-07-13T00:50:11;10.90;;;4.60;;
67278;SDS011;54193;53.746;10.058;2023-07-13T00:52:59;10.27;;;4.78;;
67278;SDS011;54193;53.746;10.058;2023-07-13T00:55:45;10.15;;;4.78;;
67278;SDS011;54193;53.746;10.058;2023-07-13T00:58:32;11.87;;;4.47;;
67278;SDS011;54193;53.746;10.058;2023-07-13T01:01:18;10.10;;;4.35;;
67278;SDS011;54193;53.746;10.058;2023-07-13T01:04:04;9.88;;;4.50;;
67278;SDS011;54193;53.746;10.058;2023-07-13T01:06:53;11.38;;;4.30;;
67278;SDS011;54193;53.746;10.058;2023-07-13T01:09:39;15.05;;;4.85;;
67278;SDS011;54193;53.746;10.058;2023-07-13T01:12:25;15.32;;;5.20;;
67278;SDS011;54193;53.746;10.058;2023-07-13T01:18:24;10.47;;;4.63;;
67278;SDS011;54193;53.746;10.058;2023-07-13T01:21:12;11.05;;;5.07;;
67278;SDS011;54193;53.746;10.058;2023-07-13T01:23:57;9.77;;;5.30;;
67278;SDS011;54193;53.746;10.058;2023-07-13T01:26:43;10.00;;;5.27;;
67278;SDS011;54193;53.746;10.058;2023-07-13T01:29:30;12.93;;;5.50;;
67278;SDS011;54193;53.746;10.058;2023-07-13T01:32:17;12.15;;;5.97;;
67278;SDS011;54193;53.746;10.058;2023-07-13T01:35:07;12.77;;;5.93;;
67278;SDS011;54193;53.746;10.058;2023-07-13T01:37:53;13.45;;;6.47;;
67278;SDS011;54193;53.746;10.058;2023-07-13T01:43:53;13.85;;;6.95;;
67278;SDS011;54193;53.746;10.058;2023-07-13T01:46:39;15.80;;;7.00;;
67278;SDS011;54193;53.746;10.058;2023-07-13T01:49:25;14.07;;;7.65;;
67278;SDS011;54193;53.746;10.058;2023-07-13T01:52:10;13.20;;;7.22;;
67278;SDS011;54193;53.746;10.058;2023-07-13T01:54:56;16.43;;;8.00;;
67278;SDS011;54193;53.746;10.058;2023-07-13T01:57:41;15.10;;;7.88;;
67278;SDS011;54193;53.746;10.058;2023-07-13T02:00:27;14.32;;;7.28;;
67278;SDS011;54193;53.746;10.058;2023-07-13T02:03:13;14.90;;;7.25;;
67278;SDS011;54193;53.746;10.058;2023-07-13T02:06:03;14.88;;;7.40;;
67278;SDS011;54193;53.746;10.058;2023-07-13T02:08:48;16.65;;;7.65;;
67278;SDS011;54193;53.746;10.058;2023-07-13T02:11:34;15.30;;;7.55;;
67278;SDS011;54193;53.746;10.058;2023-07-13T02:14:20;15.43;;;8.03;;
67278;SDS011;54193;53.746;10.058;2023-07-13T02:17:05;13.35;;;7.93;;
67278;SDS011;54193;53.746;10.058;2023-07-13T02:19:51;16.10;;;8.55;;
67278;SDS011;54193;53.746;10.058;2023-07-13T02:22:37;16.50;;;8.50;;
67278;SDS011;54193;53.746;10.058;2023-07-13T02:25:23;16.92;;;8.55;;
67278;SDS011;54193;53.746;10.058;2023-07-13T02:28:10;14.88;;;8.15;;
67278;SDS011;54193;53.746;10.058;2023-07-13T02:31:03;18.23;;;8.80;;
67278;SDS011;54193;53.746;10.058;2023-07-13T02:33:49;17.65;;;8.48;;
67278;SDS011;54193;53.746;10.058;2023-07-13T02:36:35;17.00;;;8.50;;
67278;SDS011;54193;53.746;10.058;2023-07-13T02:39:21;19.33;;;9.40;;
67278;SDS011;54193;53.746;10.058;2023-07-13T02:42:06;15.30;;;8.47;;
67278;SDS011;54193;53.746;10.058;2023-07-13T02:44:52;18.60;;;9.00;;
67278;SDS011;54193;53.746;10.058;2023-07-13T02:47:38;17.83;;;9.18;;
67278;SDS011;54193;53.746;10.058;2023-07-13T02:50:25;17.63;;;9.37;;
67278;SDS011;54193;53.746;10.058;2023-07-13T02:53:11;20.92;;;10.40;;
67278;SDS011;54193;53.746;10.058;2023-07-13T02:55:57;21.15;;;10.52;;
67278;SDS011;54193;53.746;10.058;2023-07-13T02:58:43;23.38;;;10.40;;
67278;SDS011;54193;53.746;10.058;2023-07-13T03:01:28;19.92;;;10.05;;
67278;SDS011;54193;53.746;10.058;2023-07-13T03:04:14;19.65;;;10.48;;
67278;SDS011;54193;53.746;10.058;2023-07-13T03:06:59;21.98;;;10.15;;
67278;SDS011;54193;53.746;10.058;2023-07-13T03:09:45;21.70;;;10.97;;
67278;SDS011;54193;53.746;10.058;2023-07-13T03:12:31;19.95;;;10.68;;
67278;SDS011;54193;53.746;10.058;2023-07-13T03:15:16;21.27;;;10.57;;
67278;SDS011;54193;53.746;10.058;2023-07-13T03:18:02;19.73;;;10.20;;
67278;SDS011;54193;53.746;10.058;2023-07-13T03:20:50;22.85;;;10.80;;
67278;SDS011;54193;53.746;10.058;2023-07-13T03:23:36;19.90;;;10.43;;
67278;SDS011;54193;53.746;10.058;2023-07-13T03:26:22;22.73;;;10.68;;
67278;SDS011;54193;53.746;10.058;2023-07-13T03:29:07;20.52;;;10.57;;
67278;SDS011;54193;53.746;10.058;2023-07-13T03:31:54;21.35;;;10.63;;
67278;SDS011;54193;53.746;10.058;2023-07-13T03:34:40;19.83;;;10.43;;
67278;SDS011;54193;53.746;10.058;2023-07-13T03:37:26;20.87;;;11.07;;
67278;SDS011;54193;53.746;10.058;2023-07-13T03:40:11;21.17;;;10.48;;
67278;SDS011;54193;53.746;10.058;2023-07-13T03:42:57;19.83;;;11.13;;
67278;SDS011;54193;53.746;10.058;2023-07-13T03:45:43;21.60;;;10.23;;
67278;SDS011;54193;53.746;10.058;2023-07-13T03:48:29;18.35;;;9.85;;
67278;SDS011;54193;53.746;10.058;2023-07-13T03:51:15;19.00;;;9.55;;
67278;SDS011;54193;53.746;10.058;2023-07-13T03:54:02;19.23;;;9.88;;
67278;SDS011;54193;53.746;10.058;2023-07-13T03:56:48;19.30;;;9.75;;
67278;SDS011;54193;53.746;10.058;2023-07-13T03:59:34;18.70;;;9.52;;
67278;SDS011;54193;53.746;10.058;2023-07-13T04:02:20;16.45;;;9.95;;
67278;SDS011;54193;53.746;10.058;2023-07-13T04:05:06;17.70;;;9.53;;
67278;SDS011;54193;53.746;10.058;2023-07-13T04:07:51;16.25;;;9.15;;
67278;SDS011;54193;53.746;10.058;2023-07-13T04:10:37;16.85;;;9.05;;
67278;SDS011;54193;53.746;10.058;2023-07-13T04:13:24;16.83;;;8.93;;
67278;SDS011;54193;53.746;10.058;2023-07-13T04:16:10;17.13;;;8.82;;
67278;SDS011;54193;53.746;10.058;2023-07-13T04:18:56;14.82;;;8.70;;
67278;SDS011;54193;53.746;10.058;2023-07-13T04:21:44;16.38;;;8.45;;
67278;SDS011;54193;53.746;10.058;2023-07-13T04:24:30;14.57;;;8.15;;
67278;SDS011;54193;53.746;10.058;2023-07-13T04:27:17;14.48;;;7.72;;
67278;SDS011;54193;53.746;10.058;2023-07-13T04:30:03;15.48;;;8.10;;
67278;SDS011;54193;53.746;10.058;2023-07-13T04:32:50;11.70;;;7.60;;
67278;SDS011;54193;53.746;10.058;2023-07-13T04:35:37;15.73;;;7.70;;
67278;SDS011;54193;53.746;10.058;2023-07-13T04:38:23;11.48;;;6.85;;
67278;SDS011;54193;53.746;10.058;2023-07-13T04:41:10;11.77;;;6.20;;
67278;SDS011;54193;53.746;10.058;2023-07-13T04:43:56;11.23;;;6.38;;
67278;SDS011;54193;53.746;10.058;2023-07-13T04:46:42;13.13;;;6.70;;
67278;SDS011;54193;53.746;10.058;2023-07-13T04:49:27;9.38;;;5.60;;
67278;SDS011;54193;53.746;10.058;2023-07-13T04:52:13;10.73;;;6.38;;
67278;SDS011;54193;53.746;10.058;2023-07-13T04:54:59;12.50;;;6.28;;
67278;SDS011;54193;53.746;10.058;2023-07-13T04:57:45;10.38;;;6.13;;
67278;SDS011;54193;53.746;10.058;2023-07-13T05:00:31;11.70;;;6.73;;
67278;SDS011;54193;53.746;10.058;2023-07-13T05:03:17;15.50;;;6.45;;
67278;SDS011;54193;53.746;10.058;2023-07-13T05:06:04;11.60;;;6.15;;
67278;SDS011;54193;53.746;10.058;2023-07-13T05:08:51;13.10;;;6.23;;
67278;SDS011;54193;53.746;10.058;2023-07-13T05:11:36;14.38;;;6.32;;
67278;SDS011;54193;53.746;10.058;2023-07-13T05:14:22;10.23;;;6.10;;
67278;SDS011;54193;53.746;10.058;2023-07-13T05:17:08;13.35;;;6.10;;
67278;SDS011;54193;53.746;10.058;2023-07-13T05:19:54;14.25;;;5.90;;
67278;SDS011;54193;53.746;10.058;2023-07-13T05:22:39;12.38;;;5.60;;
67278;SDS011;54193;53.746;10.058;2023-07-13T05:25:25;9.82;;;5.28;;
67278;SDS011;54193;53.746;10.058;2023-07-13T05:28:11;12.43;;;5.90;;
67278;SDS011;54193;53.746;10.058;2023-07-13T05:30:56;13.52;;;5.43;;
67278;SDS011;54193;53.746;10.058;2023-07-13T05:33:42;11.27;;;5.68;;
67278;SDS011;54193;53.746;10.058;2023-07-13T05:36:28;11.17;;;5.37;;
67278;SDS011;54193;53.746;10.058;2023-07-13T05:39:14;10.90;;;4.93;;
67278;SDS011;54193;53.746;10.058;2023-07-13T05:42:00;9.13;;;5.20;;
67278;SDS011;54193;53.746;10.058;2023-07-13T05:44:46;15.25;;;4.90;;
67278;SDS011;54193;53.746;10.058;2023-07-13T05:47:32;11.48;;;5.10;;
67278;SDS011;54193;53.746;10.058;2023-07-13T05:50:18;11.88;;;4.60;;
67278;SDS011;54193;53.746;10.058;2023-07-13T05:53:04;10.38;;;4.97;;
67278;SDS011;54193;53.746;10.058;2023-07-13T05:55:50;12.97;;;5.07;;
67278;SDS011;54193;53.746;10.058;2023-07-13T05:58:36;13.25;;;5.10;;
67278;SDS011;54193;53.746;10.058;2023-07-13T06:01:22;14.30;;;5.32;;
67278;SDS011;54193;53.746;10.058;2023-07-13T06:04:08;13.23;;;5.60;;
67278;SDS011;54193;53.746;10.058;2023-07-13T06:06:54;12.50;;;5.20;;
67278;SDS011;54193;53.746;10.058;2023-07-13T06:09:40;12.45;;;5.78;;
67278;SDS011;54193;53.746;10.058;2023-07-13T06:12:26;14.00;;;5.30;;
67278;SDS011;54193;53.746;10.058;2023-07-13T06:15:12;12.68;;;5.13;;
67278;SDS011;54193;53.746;10.058;2023-07-13T06:17:57;10.88;;;4.93;;
67278;SDS011;54193;53.746;10.058;2023-07-13T06:20:43;12.88;;;4.82;;
67278;SDS011;54193;53.746;10.058;2023-07-13T06:23:28;11.97;;;5.33;;
67278;SDS011;54193;53.746;10.058;2023-07-13T06:26:16;13.93;;;5.40;;
67278;SDS011;54193;53.746;10.058;2023-07-13T06:29:04;15.13;;;5.43;;
67278;SDS011;54193;53.746;10.058;2023-07-13T06:31:50;12.40;;;4.97;;
67278;SDS011;54193;53.746;10.058;2023-07-13T06:34:35;11.05;;;4.53;;
67278;SDS011;54193;53.746;10.058;2023-07-13T06:37:21;11.15;;;5.03;;
67278;SDS011;54193;53.746;10.058;2023-07-13T06:40:07;11.32;;;4.80;;
67278;SDS011;54193;53.746;10.058;2023-07-13T06:42:53;10.30;;;4.57;;
67278;SDS011;54193;53.746;10.058;2023-07-13T06:45:41;12.80;;;4.65;;
67278;SDS011;54193;53.746;10.058;2023-07-13T06:48:31;9.98;;;4.70;;
67278;SDS011;54193;53.746;10.058;2023-07-13T06:51:17;12.10;;;4.33;;
67278;SDS011;54193;53.746;10.058;2023-07-13T06:54:03;9.25;;;4.32;;
67278;SDS011;54193;53.746;10.058;2023-07-13T06:56:48;10.75;;;4.50;;
67278;SDS011;54193;53.746;10.058;2023-07-13T06:59:34;10.63;;;4.00;;
67278;SDS011;54193;53.746;10.058;2023-07-13T07:02:20;10.15;;;4.05;;
67278;SDS011;54193;53.746;10.058;2023-07-13T07:05:05;10.43;;;3.65;;
67278;SDS011;54193;53.746;10.058;2023-07-13T07:07:51;10.30;;;3.60;;
67278;SDS011;54193;53.746;10.058;2023-07-13T07:10:40;10.63;;;3.60;;
67278;SDS011;54193;53.746;10.058;2023-07-13T07:13:27;8.32;;;3.28;;
67278;SDS011;54193;53.746;10.058;2023-07-13T07:16:13;8.23;;;3.30;;
67278;SDS011;54193;53.746;10.058;2023-07-13T07:18:59;8.10;;;3.20;;
67278;SDS011;54193;53.746;10.058;2023-07-13T07:21:45;11.10;;;3.50;;
67278;SDS011;54193;53.746;10.058;2023-07-13T07:24:31;9.75;;;3.17;;
67278;SDS011;54193;53.746;10.058;2023-07-13T07:27:16;8.45;;;3.60;;
67278;SDS011;54193;53.746;10.058;2023-07-13T07:30:02;6.70;;;3.23;;
67278;SDS011;54193;53.746;10.058;2023-07-13T07:32:48;5.70;;;2.75;;
67278;SDS011;54193;53.746;10.058;2023-07-13T07:35:34;7.82;;;3.05;;
67278;SDS011;54193;53.746;10.058;2023-07-13T07:38:19;7.18;;;3.10;;
67278;SDS011;54193;53.746;10.058;2023-07-13T07:41:05;7.53;;;2.97;;
67278;SDS011;54193;53.746;10.058;2023-07-13T07:43:51;5.85;;;2.58;;
67278;SDS011;54193;53.746;10.058;2023-07-13T07:46:37;7.55;;;3.03;;
67278;SDS011;54193;53.746;10.058;2023-07-13T07:49:22;7.80;;;2.87;;
67278;SDS011;54193;53.746;10.058;2023-07-13T07:52:08;6.40;;;3.03;;
67278;SDS011;54193;53.746;10.058;2023-07-13T07:54:54;8.13;;;2.78;;
67278;SDS011;54193;53.746;10.058;2023-07-13T07:57:39;6.67;;;2.70;;
67278;SDS011;54193;53.746;10.058;2023-07-13T08:00:25;9.05;;;2.83;;
67278;SDS011;54193;53.746;10.058;2023-07-13T08:03:11;6.68;;;2.60;;
67278;SDS011;54193;53.746;10.058;2023-07-13T08:05:56;7.32;;;2.47;;
67278;SDS011;54193;53.746;10.058;2023-07-13T08:08:42;8.90;;;2.75;;
67278;SDS011;54193;53.746;10.058;2023-07-13T08:11:27;6.97;;;2.67;;
67278;SDS011;54193;53.746;10.058;2023-07-13T08:14:13;7.28;;;2.80;;
67278;SDS011;54193;53.746;10.058;2023-07-13T08:16:59;7.50;;;3.20;;
67278;SDS011;54193;53.746;10.058;2023-07-13T08:19:45;7.82;;;2.97;;
67278;SDS011;54193;53.746;10.058;2023-07-13T08:22:30;7.43;;;3.08;;
67278;SDS011;54193;53.746;10.058;2023-07-13T08:25:16;5.00;;;3.00;;
67278;SDS011;54193;53.746;10.058;2023-07-13T08:28:02;6.63;;;2.63;;
67278;SDS011;54193;53.746;10.058;2023-07-13T08:30:48;7.80;;;3.08;;
67278;SDS011;54193;53.746;10.058;2023-07-13T08:33:35;7.80;;;2.67;;
67278;SDS011;54193;53.746;10.058;2023-07-13T08:36:21;9.15;;;3.50;;
67278;SDS011;54193;53.746;10.058;2023-07-13T08:39:07;7.13;;;2.75;;
67278;SDS011;54193;53.746;10.058;2023-07-13T08:41:53;6.72;;;2.60;;
67278;SDS011;54193;53.746;10.058;2023-07-13T08:47:51;6.00;;;2.90;;
67278;SDS011;54193;53.746;10.058;2023-07-13T08:50:49;7.72;;;3.00;;
67278;SDS011;54193;53.746;10.058;2023-07-13T08:53:45;6.50;;;2.30;;
67278;SDS011;54193;53.746;10.058;2023-07-13T08:56:32;7.53;;;2.90;;
67278;SDS011;54193;53.746;10.058;2023-07-13T08:59:19;6.97;;;3.25;;
67278;SDS011;54193;53.746;10.058;2023-07-13T09:05:43;6.70;;;2.70;;
67278;SDS011;54193;53.746;10.058;2023-07-13T09:14:50;6.73;;;3.17;;
67278;SDS011;54193;53.746;10.058;2023-07-13T09:17:41;5.97;;;2.80;;
67278;SDS011;54193;53.746;10.058;2023-07-13T09:20:40;8.18;;;3.05;;
67278;SDS011;54193;53.746;10.058;2023-07-13T09:23:32;8.77;;;2.90;;
67278;SDS011;54193;53.746;10.058;2023-07-13T09:26:21;5.22;;;2.65;;
67278;SDS011;54193;53.746;10.058;2023-07-13T09:29:13;6.25;;;3.03;;
67278;SDS011;54193;53.746;10.058;2023-07-13T09:32:04;7.13;;;3.15;;
67278;SDS011;54193;53.746;10.058;2023-07-13T09:34:55;5.78;;;2.72;;
67278;SDS011;54193;53.746;10.058;2023-07-13T09:37:42;6.80;;;2.80;;
67278;SDS011;54193;53.746;10.058;2023-07-13T09:40:36;7.43;;;3.00;;
67278;SDS011;54193;53.746;10.058;2023-07-13T09:43:23;6.57;;;2.87;;
67278;SDS011;54193;53.746;10.058;2023-07-13T09:46:19;6.65;;;3.08;;
67278;SDS011;54193;53.746;10.058;2023-07-13T09:49:08;5.20;;;2.60;;
67278;SDS011;54193;53.746;10.058;2023-07-13T09:52:00;8.37;;;3.23;;
67278;SDS011;54193;53.746;10.058;2023-07-13T09:55:22;5.45;;;2.80;;
67278;SDS011;54193;53.746;10.058;2023-07-13T09:58:12;7.78;;;3.15;;
67278;SDS011;54193;53.746;10.058;2023-07-13T10:01:03;7.63;;;2.83;;
67278;SDS011;54193;53.746;10.058;2023-07-13T10:03:53;4.45;;;2.65;;
67278;SDS011;54193;53.746;10.058;2023-07-13T10:06:40;6.43;;;3.00;;
67278;SDS011;54193;53.746;10.058;2023-07-13T10:09:28;6.25;;;3.20;;
67278;SDS011;54193;53.746;10.058;2023-07-13T10:12:14;4.80;;;2.73;;
67278;SDS011;54193;53.746;10.058;2023-07-13T10:15:00;7.03;;;2.80;;
67278;SDS011;54193;53.746;10.058;2023-07-13T10:17:46;5.40;;;2.50;;
67278;SDS011;54193;53.746;10.058;2023-07-13T10:20:35;5.67;;;2.73;;
67278;SDS011;54193;53.746;10.058;2023-07-13T10:23:21;5.32;;;2.88;;
67278;SDS011;54193;53.746;10.058;2023-07-13T10:26:14;7.28;;;2.90;;
67278;SDS011;54193;53.746;10.058;2023-07-13T10:29:05;5.37;;;3.07;;
67278;SDS011;54193;53.746;10.058;2023-07-13T10:31:56;7.47;;;2.72;;
67278;SDS011;54193;53.746;10.058;2023-07-13T10:34:43;5.05;;;2.65;;
67278;SDS011;54193;53.746;10.058;2023-07-13T10:37:43;5.45;;;2.88;;
67278;SDS011;54193;53.746;10.058;2023-07-13T10:40:58;6.00;;;3.00;;
67278;SDS011;54193;53.746;10.058;2023-07-13T10:43:52;6.72;;;2.85;;
67278;SDS011;54193;53.746;10.058;2023-07-13T10:46:39;4.88;;;2.85;;
67278;SDS011;54193;53.746;10.058;2023-07-13T10:49:27;7.73;;;3.00;;
67278;SDS011;54193;53.746;10.058;2023-07-13T10:58:37;6.70;;;2.77;;
67278;SDS011;54193;53.746;10.058;2023-07-13T11:01:24;6.57;;;3.50;;
67278;SDS011;54193;53.746;10.058;2023-07-13T11:04:11;11.25;;;3.85;;
67278;SDS011;54193;53.746;10.058;2023-07-13T11:06:59;9.60;;;4.90;;
67278;SDS011;54193;53.746;10.058;2023-07-13T11:09:58;9.20;;;4.40;;
67278;SDS011;54193;53.746;10.058;2023-07-13T11:12:49;9.40;;;5.35;;
67278;SDS011;54193;53.746;10.058;2023-07-13T11:15:43;9.82;;;4.30;;
67278;SDS011;54193;53.746;10.058;2023-07-13T11:18:33;8.27;;;4.53;;
67278;SDS011;54193;53.746;10.058;2023-07-13T11:21:22;6.97;;;3.60;;
67278;SDS011;54193;53.746;10.058;2023-07-13T11:26:57;5.07;;;2.67;;
67278;SDS011;54193;53.746;10.058;2023-07-13T11:29:43;4.47;;;2.40;;
67278;SDS011;54193;53.746;10.058;2023-07-13T11:32:31;4.55;;;2.50;;
67278;SDS011;54193;53.746;10.058;2023-07-13T11:35:23;6.22;;;2.38;;
67278;SDS011;54193;53.746;10.058;2023-07-13T11:38:16;6.07;;;2.80;;
67278;SDS011;54193;53.746;10.058;2023-07-13T11:41:23;5.70;;;2.63;;
67278;SDS011;54193;53.746;10.058;2023-07-13T11:44:14;5.68;;;2.40;;
67278;SDS011;54193;53.746;10.058;2023-07-13T11:47:09;5.47;;;2.40;;
67278;SDS011;54193;53.746;10.058;2023-07-13T11:49:56;5.10;;;2.60;;
67278;SDS011;54193;53.746;10.058;2023-07-13T11:52:43;3.80;;;2.42;;
67278;SDS011;54193;53.746;10.058;2023-07-13T11:55:29;6.10;;;2.40;;
67278;SDS011;54193;53.746;10.058;2023-07-13T11:58:17;5.95;;;2.40;;
67278;SDS011;54193;53.746;10.058;2023-07-13T12:01:15;6.43;;;2.63;;
67278;SDS011;54193;53.746;10.058;2023-07-13T12:04:05;5.10;;;2.58;;
67278;SDS011;54193;53.746;10.058;2023-07-13T12:06:56;12.50;;;4.18;;
67278;SDS011;54193;53.746;10.058;2023-07-13T12:09:54;8.98;;;4.18;;
67278;SDS011;54193;53.746;10.058;2023-07-13T12:12:57;8.68;;;4.70;;
67278;SDS011;54193;53.746;10.058;2023-07-13T12:15:48;9.13;;;5.27;;
67278;SDS011;54193;53.746;10.058;2023-07-13T12:18:34;10.55;;;4.90;;
67278;SDS011;54193;53.746;10.058;2023-07-13T12:21:20;10.93;;;4.50;;
67278;SDS011;54193;53.746;10.058;2023-07-13T12:24:19;9.37;;;4.93;;
67278;SDS011;54193;53.746;10.058;2023-07-13T12:27:13;11.10;;;4.38;;
67278;SDS011;54193;53.746;10.058;2023-07-13T12:33:06;8.10;;;3.92;;
67278;SDS011;54193;53.746;10.058;2023-07-13T12:35:56;6.32;;;4.05;;
67278;SDS011;54193;53.746;10.058;2023-07-13T12:38:44;6.10;;;4.10;;
67278;SDS011;54193;53.746;10.058;2023-07-13T12:41:32;6.65;;;3.80;;
67278;SDS011;54193;53.746;10.058;2023-07-13T12:44:21;9.60;;;4.27;;
67278;SDS011;54193;53.746;10.058;2023-07-13T12:47:13;10.10;;;4.32;;
67278;SDS011;54193;53.746;10.058;2023-07-13T12:50:02;9.85;;;4.95;;
67278;SDS011;54193;53.746;10.058;2023-07-13T12:52:52;7.77;;;4.40;;
67278;SDS011;54193;53.746;10.058;2023-07-13T12:55:40;10.52;;;5.00;;
67278;SDS011;54193;53.746;10.058;2023-07-13T12:58:32;8.90;;;4.90;;
67278;SDS011;54193;53.746;10.058;2023-07-13T13:01:22;9.90;;;5.15;;
67278;SDS011;54193;53.746;10.058;2023-07-13T13:04:11;11.27;;;4.50;;
67278;SDS011;54193;53.746;10.058;2023-07-13T13:07:02;7.85;;;4.03;;
67278;SDS011;54193;53.746;10.058;2023-07-13T13:09:51;7.75;;;4.20;;
67278;SDS011;54193;53.746;10.058;2023-07-13T13:12:38;9.03;;;4.03;;
67278;SDS011;54193;53.746;10.058;2023-07-13T13:15:24;7.05;;;3.53;;
67278;SDS011;54193;53.746;10.058;2023-07-13T13:18:17;6.38;;;3.30;;
67278;SDS011;54193;53.746;10.058;2023-07-13T13:21:04;8.27;;;3.80;;
67278;SDS011;54193;53.746;10.058;2023-07-13T13:23:50;7.57;;;3.67;;
67278;SDS011;54193;53.746;10.058;2023-07-13T13:26:37;7.85;;;3.95;;
67278;SDS011;54193;53.746;10.058;2023-07-13T13:29:23;8.57;;;4.00;;
67278;SDS011;54193;53.746;10.058;2023-07-13T13:32:11;9.57;;;4.37;;
67278;SDS011;54193;53.746;10.058;2023-07-13T13:34:58;7.53;;;4.40;;
67278;SDS011;54193;53.746;10.058;2023-07-13T13:37:44;6.97;;;4.03;;
67278;SDS011;54193;53.746;10.058;2023-07-13T13:40:30;10.97;;;4.53;;
67278;SDS011;54193;53.746;10.058;2023-07-13T13:43:26;8.57;;;3.88;;
67278;SDS011;54193;53.746;10.058;2023-07-13T13:46:16;9.20;;;4.10;;
67278;SDS011;54193;53.746;10.058;2023-07-13T13:49:04;8.80;;;4.10;;
67278;SDS011;54193;53.746;10.058;2023-07-13T13:51:50;6.13;;;3.30;;
67278;SDS011;54193;53.746;10.058;2023-07-13T13:54:36;6.40;;;3.53;;
67278;SDS011;54193;53.746;10.058;2023-07-13T13:57:25;7.07;;;3.30;;
67278;SDS011;54193;53.746;10.058;2023-07-13T14:00:11;8.02;;;3.60;;
67278;SDS011;54193;53.746;10.058;2023-07-13T14:02:59;9.43;;;3.75;;
67278;SDS011;54193;53.746;10.058;2023-07-13T14:05:45;6.68;;;3.50;;
67278;SDS011;54193;53.746;10.058;2023-07-13T14:08:31;7.90;;;3.30;;
67278;SDS011;54193;53.746;10.058;2023-07-13T14:11:18;8.40;;;4.00;;
67278;SDS011;54193;53.746;10.058;2023-07-13T14:14:05;7.00;;;3.15;;
67278;SDS011;54193;53.746;10.058;2023-07-13T14:16:55;6.37;;;3.37;;
67278;SDS011;54193;53.746;10.058;2023-07-13T14:19:41;7.25;;;4.00;;
67278;SDS011;54193;53.746;10.058;2023-07-13T14:22:27;5.65;;;3.13;;
67278;SDS011;54193;53.746;10.058;2023-07-13T14:25:13;7.00;;;3.50;;
67278;SDS011;54193;53.746;10.058;2023-07-13T14:28:04;7.57;;;4.65;;
67278;SDS011;54193;53.746;10.058;2023-07-13T14:31:03;5.93;;;3.50;;
67278;SDS011;54193;53.746;10.058;2023-07-13T14:33:49;5.80;;;3.00;;
67278;SDS011;54193;53.746;10.058;2023-07-13T14:36:36;7.13;;;3.10;;
67278;SDS011;54193;53.746;10.058;2023-07-13T14:39:26;5.20;;;3.00;;
67278;SDS011;54193;53.746;10.058;2023-07-13T14:42:12;5.47;;;2.90;;
67278;SDS011;54193;53.746;10.058;2023-07-13T14:44:57;5.53;;;2.93;;
67278;SDS011;54193;53.746;10.058;2023-07-13T14:47:43;5.30;;;3.20;;
67278;SDS011;54193;53.746;10.058;2023-07-13T14:50:31;5.20;;;2.80;;
67278;SDS011;54193;53.746;10.058;2023-07-13T14:53:17;5.03;;;2.60;;
67278;SDS011;54193;53.746;10.058;2023-07-13T14:56:08;5.10;;;2.90;;
67278;SDS011;54193;53.746;10.058;2023-07-13T14:58:56;4.38;;;2.42;;
67278;SDS011;54193;53.746;10.058;2023-07-13T15:01:42;5.38;;;2.60;;
67278;SDS011;54193;53.746;10.058;2023-07-13T15:04:27;4.90;;;2.77;;
67278;SDS011;54193;53.746;10.058;2023-07-13T15:07:15;4.13;;;2.40;;
67278;SDS011;54193;53.746;10.058;2023-07-13T15:10:11;4.38;;;2.35;;
67278;SDS011;54193;53.746;10.058;2023-07-13T15:13:00;6.80;;;3.20;;
67278;SDS011;54193;53.746;10.058;2023-07-13T15:15:49;3.90;;;1.85;;
67278;SDS011;54193;53.746;10.058;2023-07-13T15:18:37;4.82;;;2.00;;
67278;SDS011;54193;53.746;10.058;2023-07-13T15:21:25;3.45;;;2.00;;
67278;SDS011;54193;53.746;10.058;2023-07-13T15:24:13;4.68;;;1.90;;
67278;SDS011;54193;53.746;10.058;2023-07-13T15:27:00;3.60;;;1.83;;
67278;SDS011;54193;53.746;10.058;2023-07-13T15:29:46;4.50;;;1.85;;
67278;SDS011;54193;53.746;10.058;2023-07-13T15:32:32;3.93;;;1.80;;
67278;SDS011;54193;53.746;10.058;2023-07-13T15:35:21;3.72;;;1.90;;
67278;SDS011;54193;53.746;10.058;2023-07-13T15:38:17;3.78;;;1.70;;
67278;SDS011;54193;53.746;10.058;2023-07-13T15:41:25;4.00;;;1.90;;
67278;SDS011;54193;53.746;10.058;2023-07-13T15:44:21;4.00;;;2.03;;
67278;SDS011;54193;53.746;10.058;2023-07-13T15:47:12;4.13;;;1.80;;
67278;SDS011;54193;53.746;10.058;2023-07-13T15:49:59;4.88;;;1.90;;
67278;SDS011;54193;53.746;10.058;2023-07-13T15:52:46;4.28;;;2.08;;
67278;SDS011;54193;53.746;10.058;2023-07-13T15:55:38;6.35;;;2.00;;
67278;SDS011;54193;53.746;10.058;2023-07-13T15:58:25;5.10;;;2.10;;
67278;SDS011;54193;53.746;10.058;2023-07-13T16:01:11;4.53;;;1.90;;
67278;SDS011;54193;53.746;10.058;2023-07-13T16:03:57;5.72;;;2.22;;
67278;SDS011;54193;53.746;10.058;2023-07-13T16:06:43;4.30;;;1.90;;
67278;SDS011;54193;53.746;10.058;2023-07-13T16:09:29;5.77;;;1.87;;
67278;SDS011;54193;53.746;10.058;2023-07-13T16:12:15;3.77;;;1.80;;
67278;SDS011;54193;53.746;10.058;2023-07-13T16:15:00;3.60;;;2.00;;
67278;SDS011;54193;53.746;10.058;2023-07-13T16:17:47;4.38;;;2.08;;
67278;SDS011;54193;53.746;10.058;2023-07-13T16:20:33;5.25;;;2.10;;
67278;SDS011;54193;53.746;10.058;2023-07-13T16:23:20;4.35;;;2.08;;
67278;SDS011;54193;53.746;10.058;2023-07-13T16:26:13;4.20;;;1.88;;
67278;SDS011;54193;53.746;10.058;2023-07-13T16:29:15;3.85;;;1.80;;
67278;SDS011;54193;53.746;10.058;2023-07-13T16:32:06;5.60;;;2.10;;
67278;SDS011;54193;53.746;10.058;2023-07-13T16:34:58;5.13;;;1.90;;
67278;SDS011;54193;53.746;10.058;2023-07-13T16:37:45;4.22;;;1.92;;
67278;SDS011;54193;53.746;10.058;2023-07-13T16:40:33;4.20;;;2.13;;
67278;SDS011;54193;53.746;10.058;2023-07-13T16:43:20;5.95;;;2.20;;
67278;SDS011;54193;53.746;10.058;2023-07-13T16:46:07;4.22;;;2.05;;
67278;SDS011;54193;53.746;10.058;2023-07-13T16:48:59;6.03;;;2.00;;
67278;SDS011;54193;53.746;10.058;2023-07-13T16:51:46;7.40;;;2.30;;
67278;SDS011;54193;53.746;10.058;2023-07-13T16:54:33;5.13;;;2.28;;
67278;SDS011;54193;53.746;10.058;2023-07-13T16:57:22;4.53;;;2.40;;
67278;SDS011;54193;53.746;10.058;2023-07-13T17:03:14;5.43;;;2.15;;